createdAt,value
2023-01-21T00:00:30.533Z,24.17
2023-01-21T00:01:33.699Z,23.60
2023-01-21T00:02:36.592Z,23.00
2023-01-21T00:03:39.711Z,25.05
2023-01-21T00:04:42.927Z,21.60
2023-01-21T00:05:45.678Z,25.08
2023-01-21T00:06:49.464Z,24.55
2023-01-21T00:07:52.237Z,27.60
2023-01-21T00:08:55.017Z,23.75
2023-01-21T00:09:57.984Z,23.35
2023-01-21T00:11:14.832Z,23.92
2023-01-21T00:12:17.590Z,23.40
2023-01-21T00:13:20.423Z,24.30
2023-01-21T00:14:23.087Z,24.42
2023-01-21T00:15:25.938Z,24.05
2023-01-21T00:16:28.922Z,26.50
2023-01-21T00:17:36.094Z,22.62
2023-01-21T00:18:39.485Z,22.23
2023-01-21T00:19:42.559Z,23.02
2023-01-21T00:20:46.440Z,25.15
2023-01-21T00:21:49.185Z,22.77
2023-01-21T00:22:54.124Z,18.70
2023-01-21T00:23:57.144Z,22.27
2023-01-21T00:24:59.975Z,24.52
2023-01-21T00:26:05.502Z,21.95
2023-01-21T00:27:08.383Z,23.30
2023-01-21T00:28:11.364Z,20.77
2023-01-21T00:29:14.394Z,21.20
2023-01-21T00:30:17.849Z,22.42
2023-01-21T00:31:20.739Z,22.92
2023-01-21T00:32:23.641Z,20.88
2023-01-21T00:33:27.004Z,22.48
2023-01-21T00:34:29.753Z,21.75
2023-01-21T00:35:32.456Z,25.15
2023-01-21T00:36:35.344Z,25.42
2023-01-21T00:37:38.385Z,26.27
2023-01-21T00:38:41.299Z,28.00
2023-01-21T00:39:44.314Z,22.65
2023-01-21T00:40:47.272Z,21.20
2023-01-21T00:41:50.118Z,19.55
2023-01-21T00:42:52.897Z,20.48
2023-01-21T00:43:55.859Z,23.75
2023-01-21T00:45:00.096Z,24.95
2023-01-21T00:46:03.357Z,21.90
2023-01-21T00:47:06.848Z,21.27
2023-01-21T00:48:10.165Z,22.27
2023-01-21T00:49:13.231Z,21.90
2023-01-21T00:50:16.805Z,22.15
2023-01-21T00:51:19.768Z,24.90
2023-01-21T00:52:22.786Z,20.35
2023-01-21T00:53:25.861Z,23.73
2023-01-21T00:54:28.911Z,25.65
2023-01-21T00:55:31.736Z,22.52
2023-01-21T00:56:35.019Z,20.23
2023-01-21T00:57:38.232Z,24.17
2023-01-21T00:58:43.679Z,19.45
2023-01-21T00:59:46.697Z,21.75
2023-01-21T01:00:49.604Z,17.62
2023-01-21T01:01:52.546Z,20.90
2023-01-21T01:02:55.428Z,19.05
2023-01-21T01:03:58.443Z,22.00
2023-01-21T01:05:01.383Z,21.05
2023-01-21T01:06:09.641Z,19.30
2023-01-21T01:07:12.815Z,21.10
2023-01-21T01:08:15.597Z,23.12
2023-01-21T01:09:18.337Z,20.20
2023-01-21T01:10:21.122Z,20.92
2023-01-21T01:11:26.036Z,22.33
2023-01-21T01:12:29.460Z,19.45
2023-01-21T01:13:34.464Z,21.73
2023-01-21T01:14:37.270Z,24.08
2023-01-21T01:15:40.144Z,20.12
2023-01-21T01:16:43.044Z,22.52
2023-01-21T01:17:46.207Z,23.52
2023-01-21T01:18:50.103Z,21.80
2023-01-21T01:19:53.306Z,20.65
2023-01-21T01:20:57.237Z,19.12
2023-01-21T01:22:00.606Z,19.12
2023-01-21T01:23:07.270Z,17.00
2023-01-21T01:24:10.105Z,22.80
2023-01-21T01:25:13.280Z,20.77
2023-01-21T01:26:19.107Z,22.98
2023-01-21T01:27:22.085Z,18.73
2023-01-21T01:28:25.123Z,21.73
2023-01-21T01:29:28.937Z,20.60
2023-01-21T01:30:32.491Z,18.87
2023-01-21T01:31:35.443Z,19.83
2023-01-21T01:32:38.433Z,18.42
2023-01-21T01:33:41.604Z,18.20
2023-01-21T01:34:45.345Z,21.45
2023-01-21T01:35:49.129Z,18.48
2023-01-21T01:36:51.822Z,17.02
2023-01-21T01:37:54.666Z,19.60
2023-01-21T01:38:59.279Z,20.17
2023-01-21T01:40:02.178Z,16.27
2023-01-21T01:41:05.418Z,19.77
2023-01-21T01:42:15.937Z,19.75
2023-01-21T01:43:22.378Z,16.08
2023-01-21T01:45:02.771Z,16.80
2023-01-21T01:46:05.523Z,17.65
2023-01-21T01:47:08.596Z,16.30
2023-01-21T01:48:17.481Z,19.23
2023-01-21T01:49:21.993Z,17.83
2023-01-21T01:50:28.999Z,16.75
2023-01-21T01:51:48.582Z,18.27
2023-01-21T01:52:51.510Z,22.20
2023-01-21T01:53:54.505Z,19.27
2023-01-21T01:55:01.276Z,16.10
2023-01-21T01:56:04.873Z,17.83
2023-01-21T01:57:12.921Z,17.17
2023-01-21T01:58:19.900Z,18.23
2023-01-21T01:59:23.485Z,18.33
2023-01-21T02:00:27.390Z,20.73
2023-01-21T02:01:30.294Z,17.95
2023-01-21T02:02:35.379Z,15.20
2023-01-21T02:03:45.017Z,17.10
2023-01-21T02:04:52.473Z,17.37
2023-01-21T02:05:55.880Z,15.73
2023-01-21T02:06:58.777Z,16.30
2023-01-21T02:08:02.361Z,20.30
2023-01-21T02:09:05.527Z,14.95
2023-01-21T02:10:15.253Z,19.33
2023-01-21T02:11:20.719Z,18.52
2023-01-21T02:12:24.258Z,19.70
2023-01-21T02:13:30.457Z,14.35
2023-01-21T02:14:42.893Z,17.37
2023-01-21T02:16:01.404Z,16.20
2023-01-21T02:17:32.250Z,16.83
2023-01-21T02:18:55.700Z,18.10
2023-01-21T02:20:26.237Z,17.02
2023-01-21T02:22:07.886Z,16.55
2023-01-21T02:23:19.569Z,13.83
2023-01-21T02:24:22.164Z,15.63
2023-01-21T02:26:02.129Z,17.12
2023-01-21T02:27:30.696Z,16.55
2023-01-21T02:29:01.878Z,18.58
2023-01-21T02:30:24.739Z,14.35
2023-01-21T02:31:54.168Z,17.12
2023-01-21T02:33:09.688Z,15.45
2023-01-21T02:34:35.418Z,16.27
2023-01-21T02:36:00.182Z,17.87
2023-01-21T02:37:09.747Z,15.63
2023-01-21T02:38:26.017Z,18.30
2023-01-21T02:39:47.647Z,17.52
2023-01-21T02:41:29.847Z,17.52
2023-01-21T02:42:55.549Z,16.98
2023-01-21T02:44:18.497Z,16.87
2023-01-21T02:45:34.173Z,18.50
2023-01-21T02:46:53.689Z,17.83
2023-01-21T02:48:07.401Z,14.85
2023-01-21T02:49:20.344Z,16.70
2023-01-21T02:50:49.416Z,16.80
2023-01-21T02:51:52.255Z,17.80
2023-01-21T02:53:03.654Z,17.73
2023-01-21T02:54:38.779Z,17.17
2023-01-21T02:55:43.503Z,17.30
2023-01-21T02:56:46.450Z,20.00
2023-01-21T02:57:53.639Z,18.45
2023-01-21T02:59:02.815Z,20.00
2023-01-21T03:00:11.660Z,18.80
2023-01-21T03:01:25.095Z,18.60
2023-01-21T03:02:28.122Z,17.40
2023-01-21T03:03:49.866Z,20.30
2023-01-21T03:05:13.483Z,20.00
2023-01-21T03:06:41.716Z,15.82
2023-01-21T03:07:51.518Z,16.33
2023-01-21T03:09:01.160Z,17.08
2023-01-21T03:10:14.776Z,18.02
2023-01-21T03:11:21.838Z,17.08
2023-01-21T03:12:35.251Z,15.68
2023-01-21T03:14:11.115Z,18.67
2023-01-21T03:15:43.502Z,17.08
2023-01-21T03:16:59.805Z,15.70
2023-01-21T03:18:43.362Z,17.80
2023-01-21T03:20:05.648Z,15.85
2023-01-21T03:21:18.162Z,18.02
2023-01-21T03:22:28.463Z,18.17
2023-01-21T03:23:36.925Z,19.27
2023-01-21T03:24:42.691Z,16.75
2023-01-21T03:25:48.796Z,18.95
2023-01-21T03:26:55.765Z,18.75
2023-01-21T03:28:02.563Z,17.55
2023-01-21T03:29:11.656Z,17.45
2023-01-21T03:30:18.383Z,17.87
2023-01-21T03:31:26.539Z,20.55
2023-01-21T03:32:33.254Z,21.37
2023-01-21T03:33:40.597Z,16.95
2023-01-21T03:34:49.687Z,18.92
2023-01-21T03:35:56.081Z,17.40
2023-01-21T03:37:08.210Z,18.33
2023-01-21T03:38:32.002Z,16.05
2023-01-21T03:39:44.150Z,19.50
2023-01-21T03:40:55.757Z,19.75
2023-01-21T03:43:02.250Z,16.45
2023-01-21T03:44:05.374Z,15.13
2023-01-21T03:45:09.673Z,19.60
2023-01-21T03:46:25.313Z,15.68
2023-01-21T03:47:37.448Z,15.27
2023-01-21T03:49:04.811Z,15.73
2023-01-21T03:50:39.933Z,15.05
2023-01-21T03:51:50.191Z,14.15
2023-01-21T03:52:53.614Z,14.15
2023-01-21T03:53:59.448Z,13.77
2023-01-21T03:55:02.311Z,14.32
2023-01-21T03:56:05.762Z,14.85
2023-01-21T03:57:08.889Z,15.18
2023-01-21T03:58:12.020Z,14.95
2023-01-21T03:59:15.017Z,17.42
2023-01-21T04:00:18.740Z,16.15
2023-01-21T04:01:22.105Z,19.45
2023-01-21T04:02:25.085Z,19.02
2023-01-21T04:03:28.075Z,19.62
2023-01-21T04:04:31.024Z,20.40
2023-01-21T04:05:35.731Z,19.45
2023-01-21T04:06:38.647Z,22.08
2023-01-21T04:07:41.497Z,20.83
2023-01-21T04:08:45.159Z,22.95
2023-01-21T04:09:50.208Z,21.00
2023-01-21T04:10:53.161Z,21.05
2023-01-21T04:11:56.095Z,19.83
2023-01-21T04:12:58.912Z,24.10
2023-01-21T04:14:01.850Z,22.90
2023-01-21T04:15:05.659Z,21.87
2023-01-21T04:16:09.409Z,25.67
2023-01-21T04:17:12.401Z,25.15
2023-01-21T04:18:15.309Z,25.02
2023-01-21T04:19:18.201Z,24.40
2023-01-21T04:20:21.060Z,24.58
2023-01-21T04:21:24.027Z,21.40
2023-01-21T04:22:26.893Z,21.80
2023-01-21T04:23:29.769Z,24.45
2023-01-21T04:24:34.586Z,23.60
2023-01-21T04:25:38.050Z,27.08
2023-01-21T04:26:41.394Z,25.62
2023-01-21T04:27:44.228Z,24.12
2023-01-21T04:28:47.271Z,24.15
2023-01-21T04:29:50.006Z,27.00
2023-01-21T04:30:52.823Z,27.75
2023-01-21T04:31:56.002Z,24.90
2023-01-21T04:32:58.869Z,26.83
2023-01-21T04:34:02.097Z,28.75
2023-01-21T04:35:05.399Z,25.25
2023-01-21T04:36:09.068Z,23.77
2023-01-21T04:37:11.923Z,23.92
2023-01-21T04:38:15.993Z,26.52
2023-01-21T04:39:18.783Z,24.58
2023-01-21T04:40:21.550Z,21.25
2023-01-21T04:41:25.547Z,24.63
2023-01-21T04:42:28.825Z,23.52
2023-01-21T04:43:31.857Z,23.55
2023-01-21T04:44:34.599Z,24.60
2023-01-21T04:45:37.465Z,26.87
2023-01-21T04:46:40.776Z,22.00
2023-01-21T04:47:44.473Z,23.73
2023-01-21T04:48:48.076Z,22.70
2023-01-21T04:49:52.989Z,21.90
2023-01-21T04:50:56.238Z,26.52
2023-01-21T04:51:59.415Z,21.27
2023-01-21T04:53:02.612Z,23.62
2023-01-21T04:54:05.615Z,22.30
2023-01-21T04:55:09.950Z,27.23
2023-01-21T04:56:12.835Z,20.85
2023-01-21T04:57:16.017Z,21.80
2023-01-21T04:58:20.738Z,18.30
2023-01-21T04:59:23.527Z,20.08
2023-01-21T05:00:26.609Z,24.00
2023-01-21T05:01:29.729Z,19.30
2023-01-21T05:02:33.323Z,22.33
2023-01-21T05:03:36.273Z,24.77
2023-01-21T05:04:39.049Z,22.95
2023-01-21T05:05:41.960Z,22.60
2023-01-21T05:06:45.015Z,23.35
2023-01-21T05:07:48.311Z,25.67
2023-01-21T05:08:51.175Z,23.05
2023-01-21T05:09:54.545Z,23.80
2023-01-21T05:10:57.550Z,23.27
2023-01-21T05:12:00.474Z,21.73
2023-01-21T05:13:03.764Z,26.12
2023-01-21T05:14:06.659Z,22.62
2023-01-21T05:15:10.110Z,23.77
2023-01-21T05:16:14.634Z,26.10
2023-01-21T05:17:17.353Z,27.30
2023-01-21T05:18:24.501Z,26.73
2023-01-21T05:19:27.720Z,25.62
2023-01-21T05:20:30.575Z,23.80
2023-01-21T05:21:33.423Z,24.75
2023-01-21T05:22:36.391Z,26.62
2023-01-21T05:23:39.216Z,26.20
2023-01-21T05:24:42.019Z,26.02
2023-01-21T05:25:44.775Z,29.50
2023-01-21T05:26:49.906Z,28.25
2023-01-21T05:27:53.704Z,26.48
2023-01-21T05:28:57.142Z,30.27
2023-01-21T05:29:59.860Z,33.53
2023-01-21T05:31:03.753Z,33.30
2023-01-21T05:32:06.626Z,33.65
2023-01-21T05:33:09.385Z,34.53
2023-01-21T05:34:12.748Z,29.80
2023-01-21T05:35:19.280Z,28.10
2023-01-21T05:36:22.254Z,32.78
2023-01-21T05:37:26.095Z,33.05
2023-01-21T05:38:29.905Z,32.88
2023-01-21T05:39:32.872Z,31.15
2023-01-21T05:40:35.694Z,31.80
2023-01-21T05:41:38.589Z,31.02
2023-01-21T05:42:41.592Z,31.42
2023-01-21T05:43:44.751Z,32.25
2023-01-21T05:44:47.620Z,26.65
2023-01-21T05:45:50.559Z,29.83
2023-01-21T05:46:53.675Z,30.73
2023-01-21T05:47:56.497Z,29.37
2023-01-21T05:48:59.488Z,34.15
2023-01-21T05:50:02.598Z,27.30
2023-01-21T05:51:06.134Z,27.90
2023-01-21T05:52:08.998Z,28.55
2023-01-21T05:53:12.088Z,30.50
2023-01-21T05:54:15.215Z,31.48
2023-01-21T05:55:18.145Z,32.28
2023-01-21T05:56:21.070Z,22.77
2023-01-21T05:57:23.980Z,30.30
2023-01-21T05:58:27.894Z,41.85
2023-01-21T05:59:31.050Z,35.05
2023-01-21T06:00:34.132Z,43.67
2023-01-21T06:01:37.184Z,40.28
2023-01-21T06:02:40.363Z,35.72
2023-01-21T06:03:43.273Z,36.90
2023-01-21T06:04:46.545Z,34.17
2023-01-21T06:05:50.326Z,33.92
2023-01-21T06:06:53.444Z,34.50
2023-01-21T06:07:56.513Z,27.60
2023-01-21T06:09:00.029Z,29.50
2023-01-21T06:10:03.180Z,30.10
2023-01-21T06:11:06.092Z,28.38
2023-01-21T06:12:09.178Z,24.83
2023-01-21T06:13:13.533Z,27.35
2023-01-21T06:14:16.576Z,28.98
2023-01-21T06:15:20.476Z,29.05
2023-01-21T06:16:23.492Z,24.83
2023-01-21T06:17:26.707Z,29.15
2023-01-21T06:18:29.872Z,25.58
2023-01-21T06:19:33.008Z,28.45
2023-01-21T06:20:36.609Z,28.02
2023-01-21T06:21:39.550Z,31.37
2023-01-21T06:22:42.487Z,28.58
2023-01-21T06:23:45.337Z,26.00
2023-01-21T06:24:48.799Z,30.12
2023-01-21T06:25:52.220Z,27.37
2023-01-21T06:26:55.103Z,26.60
2023-01-21T06:27:58.459Z,26.33
2023-01-21T06:29:01.556Z,32.63
2023-01-21T06:30:06.845Z,27.10
2023-01-21T06:31:10.065Z,24.40
2023-01-21T06:32:13.256Z,28.65
2023-01-21T06:33:16.176Z,27.15
2023-01-21T06:34:19.067Z,28.17
2023-01-21T06:35:21.886Z,27.25
2023-01-21T06:36:25.078Z,30.30
2023-01-21T06:37:28.352Z,25.80
2023-01-21T06:38:31.952Z,32.15
2023-01-21T06:39:34.987Z,28.00
2023-01-21T06:40:37.961Z,25.67
2023-01-21T06:41:41.066Z,28.60
2023-01-21T06:42:48.156Z,30.15
2023-01-21T06:43:51.273Z,28.27
2023-01-21T06:44:54.170Z,28.58
2023-01-21T06:45:57.474Z,28.35
2023-01-21T06:47:01.313Z,26.45
2023-01-21T06:48:05.068Z,25.75
2023-01-21T06:49:07.854Z,28.15
2023-01-21T06:50:12.974Z,27.52
2023-01-21T06:51:16.020Z,23.40
2023-01-21T06:52:18.967Z,29.70
2023-01-21T06:53:22.143Z,28.02
2023-01-21T06:54:25.012Z,27.80
2023-01-21T06:55:28.002Z,29.30
2023-01-21T06:56:30.961Z,29.30
2023-01-21T06:57:34.331Z,28.85
2023-01-21T06:58:37.477Z,29.20
2023-01-21T06:59:41.145Z,25.77
2023-01-21T07:00:44.742Z,27.55
2023-01-21T07:01:47.671Z,26.02
2023-01-21T07:02:50.848Z,28.05
2023-01-21T07:03:53.636Z,26.25
2023-01-21T07:04:59.036Z,25.30
2023-01-21T07:06:01.943Z,27.70
2023-01-21T07:07:04.699Z,24.60
2023-01-21T07:08:07.616Z,25.33
2023-01-21T07:09:11.429Z,26.50
2023-01-21T07:10:14.399Z,25.50
2023-01-21T07:11:17.240Z,20.90
2023-01-21T07:12:20.097Z,22.65
2023-01-21T07:13:23.587Z,18.35
2023-01-21T07:14:26.392Z,20.80
2023-01-21T07:15:31.397Z,21.20
2023-01-21T07:16:34.133Z,17.80
2023-01-21T07:17:36.996Z,22.35
2023-01-21T07:18:39.888Z,20.23
2023-01-21T07:19:42.673Z,19.75
2023-01-21T07:20:45.447Z,21.98
2023-01-21T07:21:48.416Z,23.20
2023-01-21T07:22:51.184Z,22.05
2023-01-21T07:23:54.782Z,23.75
2023-01-21T07:24:57.504Z,24.75
2023-01-21T07:26:00.294Z,25.90
2023-01-21T07:27:05.456Z,26.62
2023-01-21T07:28:08.297Z,28.73
2023-01-21T07:29:11.129Z,33.42
2023-01-21T07:30:18.122Z,32.38
2023-01-21T07:31:21.145Z,28.40
2023-01-21T07:32:24.048Z,25.40
2023-01-21T07:33:27.114Z,27.48
2023-01-21T07:34:30.008Z,27.48
2023-01-21T07:35:32.798Z,23.45
2023-01-21T07:36:35.676Z,28.70
2023-01-21T07:37:38.543Z,26.27
2023-01-21T07:38:41.622Z,29.40
2023-01-21T07:39:44.767Z,24.63
2023-01-21T07:40:51.405Z,27.33
2023-01-21T07:41:54.159Z,28.75
2023-01-21T07:42:57.263Z,28.15
2023-01-21T07:44:00.214Z,24.58
2023-01-21T07:45:04.093Z,27.35
2023-01-21T07:46:06.858Z,25.62
2023-01-21T07:47:10.683Z,25.80
2023-01-21T07:48:13.555Z,22.08
2023-01-21T07:49:17.548Z,23.38
2023-01-21T07:50:20.487Z,23.77
2023-01-21T07:51:23.386Z,21.75
2023-01-21T07:52:26.457Z,24.92
2023-01-21T07:53:29.241Z,22.67
2023-01-21T07:54:32.333Z,18.35
2023-01-21T07:55:35.059Z,19.73
2023-01-21T07:56:38.142Z,16.60
2023-01-21T07:57:40.861Z,18.58
2023-01-21T07:58:43.775Z,17.65
2023-01-21T07:59:46.459Z,18.20
2023-01-21T08:00:49.841Z,22.62
2023-01-21T08:01:52.747Z,19.62
2023-01-21T08:02:56.844Z,19.10
2023-01-21T08:04:00.165Z,16.67
2023-01-21T08:05:02.938Z,20.98
2023-01-21T08:06:06.700Z,16.62
2023-01-21T08:07:12.998Z,16.58
2023-01-21T08:08:16.102Z,17.35
2023-01-21T08:09:18.963Z,17.15
2023-01-21T08:10:22.717Z,14.07
2023-01-21T08:11:25.521Z,13.98
2023-01-21T08:12:28.607Z,16.30
2023-01-21T08:13:31.389Z,14.00
2023-01-21T08:14:34.821Z,14.63
2023-01-21T08:15:37.603Z,13.60
2023-01-21T08:16:41.465Z,14.68
2023-01-21T08:17:45.094Z,12.75
2023-01-21T08:18:48.138Z,12.63
2023-01-21T08:19:50.979Z,11.88
2023-01-21T08:20:55.809Z,12.40
2023-01-21T08:21:59.558Z,11.32
2023-01-21T08:23:02.272Z,14.15
2023-01-21T08:24:05.748Z,12.55
2023-01-21T08:25:08.927Z,12.68
2023-01-21T08:26:11.757Z,13.30
2023-01-21T08:27:14.614Z,10.70
2023-01-21T08:28:17.670Z,14.10
2023-01-21T08:29:20.408Z,12.43
2023-01-21T08:30:23.198Z,11.35
2023-01-21T08:31:26.057Z,12.50
2023-01-21T08:32:31.750Z,14.45
2023-01-21T08:33:34.987Z,11.60
2023-01-21T08:34:37.851Z,13.20
2023-01-21T08:35:40.689Z,11.80
2023-01-21T08:36:43.393Z,16.15
2023-01-21T08:37:47.641Z,10.70
2023-01-21T08:38:55.113Z,14.73
2023-01-21T08:39:57.996Z,15.13
2023-01-21T08:41:00.957Z,16.35
2023-01-21T08:42:03.892Z,15.23
2023-01-21T08:43:09.361Z,16.12
2023-01-21T08:44:12.419Z,17.30
2023-01-21T08:45:15.546Z,12.77
2023-01-21T08:46:18.401Z,11.80
2023-01-21T08:47:21.410Z,11.68
2023-01-21T08:48:24.634Z,13.25
2023-01-21T08:49:27.457Z,14.25
2023-01-21T08:50:30.303Z,13.55
2023-01-21T08:51:32.998Z,17.23
2023-01-21T08:52:35.839Z,12.80
2023-01-21T08:53:38.711Z,13.52
2023-01-21T08:54:41.837Z,13.73
2023-01-21T08:55:44.684Z,11.15
2023-01-21T08:56:47.346Z,17.05
2023-01-21T08:57:52.300Z,14.18
2023-01-21T08:58:56.928Z,18.55
2023-01-21T08:59:59.774Z,15.43
2023-01-21T09:01:10.682Z,15.90
2023-01-21T09:02:13.712Z,23.25
2023-01-21T09:03:18.012Z,37.63
2023-01-21T09:04:21.412Z,44.42
2023-01-21T09:05:24.218Z,62.30
2023-01-21T09:06:29.218Z,36.38
2023-01-21T09:07:32.126Z,45.55
2023-01-21T09:08:36.591Z,47.95
2023-01-21T09:09:39.732Z,47.22
2023-01-21T09:11:01.180Z,48.53
2023-01-21T09:12:08.439Z,25.73
2023-01-21T09:13:11.513Z,25.15
2023-01-21T09:14:14.971Z,27.05
2023-01-21T09:15:17.988Z,20.27
2023-01-21T09:16:22.840Z,21.23
2023-01-21T09:17:25.961Z,14.70
2023-01-21T09:18:29.323Z,19.65
2023-01-21T09:19:32.335Z,21.98
2023-01-21T09:20:35.628Z,20.90
2023-01-21T09:21:38.625Z,25.40
2023-01-21T09:22:42.010Z,23.52
2023-01-21T09:23:44.872Z,32.92
2023-01-21T09:24:47.674Z,27.02
2023-01-21T09:25:56.005Z,52.65
2023-01-21T09:26:58.758Z,62.20
2023-01-21T09:28:01.641Z,62.45
2023-01-21T09:29:05.975Z,82.03
2023-01-21T09:30:09.626Z,38.40
2023-01-21T09:31:18.459Z,46.25
2023-01-21T09:32:21.184Z,21.62
2023-01-21T09:33:24.206Z,22.50
2023-01-21T09:34:27.648Z,21.95
2023-01-21T09:35:30.565Z,29.00
2023-01-21T09:36:35.559Z,62.60
2023-01-21T09:37:38.742Z,43.80
2023-01-21T09:38:45.987Z,56.33
2023-01-21T09:39:50.148Z,44.10
2023-01-21T09:40:53.810Z,18.15
2023-01-21T09:41:58.497Z,18.08
2023-01-21T09:43:10.016Z,44.78
2023-01-21T09:44:28.612Z,39.42
2023-01-21T09:45:32.039Z,31.50
2023-01-21T09:46:38.508Z,33.33
2023-01-21T09:47:43.774Z,24.98
2023-01-21T09:48:49.929Z,25.35
2023-01-21T09:49:58.899Z,26.20
2023-01-21T09:51:06.622Z,24.27
2023-01-21T09:52:24.111Z,70.20
2023-01-21T09:53:34.805Z,64.30
2023-01-21T09:54:39.822Z,28.08
2023-01-21T09:55:48.358Z,28.40
2023-01-21T09:57:08.375Z,35.45
2023-01-21T09:58:17.404Z,39.72
2023-01-21T09:59:30.804Z,34.67
2023-01-21T10:00:42.919Z,22.35
2023-01-21T10:01:46.532Z,25.98
2023-01-21T10:02:54.893Z,25.85
2023-01-21T10:04:16.119Z,29.02
2023-01-21T10:05:25.116Z,21.83
2023-01-21T10:06:35.620Z,28.77
2023-01-21T10:07:45.918Z,51.08
2023-01-21T10:09:25.248Z,69.43
2023-01-21T10:10:49.083Z,35.97
2023-01-21T10:12:19.926Z,28.60
2023-01-21T10:13:59.431Z,36.45
2023-01-21T10:15:24.314Z,37.90
2023-01-21T10:16:44.820Z,33.47
2023-01-21T10:17:53.837Z,19.15
2023-01-21T10:19:00.933Z,31.15
2023-01-21T10:20:22.960Z,23.35
2023-01-21T10:21:31.772Z,32.85
2023-01-21T10:22:35.298Z,18.00
2023-01-21T10:23:45.890Z,28.05
2023-01-21T10:25:01.542Z,74.15
2023-01-21T10:26:08.696Z,65.40
2023-01-21T10:27:16.582Z,67.35
2023-01-21T10:28:42.616Z,26.00
2023-01-21T10:29:48.564Z,27.05
2023-01-21T10:31:04.819Z,41.58
2023-01-21T10:32:19.325Z,24.83
2023-01-21T10:33:25.650Z,35.40
2023-01-21T10:34:35.080Z,27.95
2023-01-21T10:35:56.246Z,26.37
2023-01-21T10:37:15.468Z,28.15
2023-01-21T10:38:45.564Z,51.20
2023-01-21T10:40:02.243Z,52.03
2023-01-21T10:41:28.351Z,32.47
2023-01-21T10:42:46.346Z,22.80
2023-01-21T10:44:15.340Z,24.40
2023-01-21T10:45:27.628Z,23.52
2023-01-21T10:46:41.647Z,17.42
2023-01-21T10:47:50.983Z,17.17
2023-01-21T10:49:44.512Z,21.58
2023-01-21T10:50:59.251Z,14.77
2023-01-21T10:52:14.583Z,16.55
2023-01-21T10:53:53.568Z,20.62
2023-01-21T10:55:20.354Z,18.30
2023-01-21T10:56:57.277Z,17.05
2023-01-21T10:58:11.806Z,49.60
2023-01-21T10:59:19.224Z,17.65
2023-01-21T11:00:27.157Z,16.35
2023-01-21T11:01:41.007Z,18.37
2023-01-21T11:02:47.009Z,16.20
2023-01-21T11:03:56.515Z,12.85
2023-01-21T11:05:04.792Z,18.87
2023-01-21T11:06:12.364Z,32.08
2023-01-21T11:07:19.696Z,20.95
2023-01-21T11:08:26.272Z,15.23
2023-01-21T11:09:42.757Z,16.33
2023-01-21T11:10:48.534Z,19.12
2023-01-21T11:11:51.200Z,17.25
2023-01-21T11:12:56.074Z,18.42
2023-01-21T11:13:59.296Z,15.60
2023-01-21T11:15:12.824Z,20.80
2023-01-21T11:16:39.555Z,40.05
2023-01-21T11:17:46.145Z,20.35
2023-01-21T11:18:49.023Z,14.80
2023-01-21T11:19:59.622Z,26.65
2023-01-21T11:21:24.322Z,21.02
2023-01-21T11:22:31.421Z,17.25
2023-01-21T11:23:39.426Z,33.28
2023-01-21T11:24:48.109Z,47.95
2023-01-21T11:25:51.248Z,77.07
2023-01-21T11:26:59.637Z,28.10
2023-01-21T11:28:03.754Z,29.52
2023-01-21T11:29:14.603Z,26.27
2023-01-21T11:30:50.795Z,21.00
2023-01-21T11:32:04.221Z,18.75
2023-01-21T11:33:27.454Z,25.12
2023-01-21T11:34:30.607Z,24.20
2023-01-21T11:35:33.430Z,29.80
2023-01-21T11:36:36.318Z,28.20
2023-01-21T11:37:39.224Z,24.52
2023-01-21T11:38:43.231Z,44.88
2023-01-21T11:40:02.079Z,21.40
2023-01-21T11:41:15.673Z,25.60
2023-01-21T11:42:19.422Z,28.27
2023-01-21T11:43:41.371Z,26.15
2023-01-21T11:44:54.296Z,24.92
2023-01-21T11:45:57.473Z,24.92
2023-01-21T11:47:00.755Z,29.05
2023-01-21T11:48:21.276Z,28.62
2023-01-21T11:49:32.056Z,22.85
2023-01-21T11:50:38.266Z,23.10
2023-01-21T11:51:42.840Z,32.70
2023-01-21T11:52:46.112Z,32.92
2023-01-21T11:53:49.072Z,34.53
2023-01-21T11:54:51.923Z,34.42
2023-01-21T11:56:00.110Z,31.60
2023-01-21T11:57:03.654Z,33.58
2023-01-21T11:58:16.593Z,26.85
2023-01-21T11:59:26.570Z,33.28
2023-01-21T12:00:31.935Z,25.90
2023-01-21T12:01:34.919Z,27.15
2023-01-21T12:02:44.663Z,36.92
2023-01-21T12:03:53.397Z,30.67
2023-01-21T12:05:01.994Z,53.65
2023-01-21T12:06:07.711Z,29.85
2023-01-21T12:07:23.096Z,31.02
2023-01-21T12:08:30.197Z,35.15
2023-01-21T12:09:33.121Z,28.35
2023-01-21T12:10:44.173Z,35.75
2023-01-21T12:12:11.536Z,23.60
2023-01-21T12:13:23.160Z,25.30
2023-01-21T12:16:08.250Z,24.90
2023-01-21T12:17:29.171Z,29.75
2023-01-21T12:19:08.404Z,40.80
2023-01-21T12:20:32.618Z,63.40
2023-01-21T12:21:49.790Z,44.03
2023-01-21T12:23:10.869Z,27.58
2023-01-21T12:24:13.756Z,53.03
2023-01-21T12:25:27.499Z,39.83
2023-01-21T12:26:53.123Z,28.73
2023-01-21T12:28:17.482Z,25.48
2023-01-21T12:29:29.039Z,31.50
2023-01-21T12:31:01.147Z,20.75
2023-01-21T12:32:32.998Z,19.37
2023-01-21T12:33:44.196Z,18.80
2023-01-21T12:35:16.447Z,18.12
2023-01-21T12:36:33.361Z,23.38
2023-01-21T12:37:49.688Z,19.45
2023-01-21T12:39:16.145Z,17.08
2023-01-21T12:40:23.316Z,17.05
2023-01-21T12:41:32.860Z,20.58
2023-01-21T12:42:44.837Z,20.35
2023-01-21T12:43:54.243Z,13.73
2023-01-21T12:45:18.034Z,15.48
2023-01-21T12:46:32.616Z,13.48
2023-01-21T12:47:51.686Z,16.67
2023-01-21T12:49:02.132Z,14.87
2023-01-21T12:50:39.975Z,14.13
2023-01-21T12:52:11.751Z,13.88
2023-01-21T12:53:31.109Z,14.18
2023-01-21T12:55:00.200Z,13.48
2023-01-21T12:56:10.591Z,14.00
2023-01-21T12:57:22.247Z,12.68
2023-01-21T12:58:30.615Z,14.52
2023-01-21T13:00:18.494Z,16.50
2023-01-21T13:01:33.625Z,17.00
2023-01-21T13:02:46.757Z,10.35
2023-01-21T13:04:03.247Z,14.52
2023-01-21T13:05:36.542Z,14.38
2023-01-21T13:06:53.937Z,12.60
2023-01-21T13:08:18.397Z,10.85
2023-01-21T13:09:59.476Z,13.65
2023-01-21T13:11:22.420Z,11.70
2023-01-21T13:12:30.152Z,13.20
2023-01-21T13:13:42.269Z,12.55
2023-01-21T13:14:51.469Z,11.50
2023-01-21T13:16:00.604Z,13.10
2023-01-21T13:17:15.742Z,11.32
2023-01-21T13:18:37.618Z,11.55
2023-01-21T13:19:40.408Z,8.93
2023-01-21T13:20:57.711Z,11.20
2023-01-21T13:22:30.125Z,9.27
2023-01-21T13:25:24.944Z,8.52
2023-01-21T13:26:54.918Z,8.93
2023-01-21T13:28:16.032Z,9.40
2023-01-21T13:29:27.024Z,9.30
2023-01-21T13:30:45.286Z,9.93
2023-01-21T13:31:55.555Z,11.43
2023-01-21T13:33:04.014Z,12.82
2023-01-21T13:34:39.690Z,8.88
2023-01-21T13:35:55.790Z,10.30
2023-01-21T13:37:18.477Z,8.82
2023-01-21T13:38:35.903Z,8.43
2023-01-21T13:39:58.183Z,8.15
2023-01-21T13:41:18.857Z,7.97
2023-01-21T13:42:33.402Z,9.98
2023-01-21T13:43:44.423Z,8.57
2023-01-21T13:45:19.331Z,7.62
2023-01-21T13:46:42.621Z,10.63
2023-01-21T13:48:00.751Z,8.55
2023-01-21T13:49:35.645Z,7.85
2023-01-21T13:50:50.759Z,8.98
2023-01-21T13:52:01.333Z,7.53
2023-01-21T13:53:11.454Z,9.10
2023-01-21T13:54:44.220Z,7.90
2023-01-21T13:56:03.213Z,8.60
2023-01-21T13:57:40.049Z,7.55
2023-01-21T13:59:04.604Z,9.73
2023-01-21T14:00:16.668Z,8.90
2023-01-21T14:01:31.670Z,8.30
2023-01-21T14:02:43.933Z,9.18
2023-01-21T14:04:03.069Z,7.97
2023-01-21T14:05:15.158Z,8.18
2023-01-21T14:06:43.262Z,11.48
2023-01-21T14:08:12.924Z,8.45
2023-01-21T14:09:27.882Z,7.70
2023-01-21T14:10:40.801Z,8.32
2023-01-21T14:11:51.160Z,6.65
2023-01-21T14:13:31.746Z,9.73
2023-01-21T14:14:59.476Z,9.10
2023-01-21T14:16:19.291Z,9.55
2023-01-21T14:17:49.778Z,124.18
2023-01-21T14:19:23.432Z,28.73
2023-01-21T14:20:47.842Z,9.00
2023-01-21T14:22:38.131Z,9.93
2023-01-21T14:23:50.442Z,10.55
2023-01-21T14:25:18.030Z,8.93
2023-01-21T14:26:54.183Z,13.85
2023-01-21T14:28:07.947Z,8.90
2023-01-21T14:29:45.279Z,12.27
2023-01-21T14:32:38.340Z,20.42
2023-01-21T14:34:06.129Z,13.80
2023-01-21T14:35:09.372Z,11.90
2023-01-21T14:36:26.691Z,10.32
2023-01-21T14:37:37.792Z,10.60
2023-01-21T14:40:12.799Z,9.73
2023-01-21T14:41:16.360Z,8.27
2023-01-21T14:42:27.429Z,12.23
2023-01-21T14:43:30.879Z,9.52
2023-01-21T14:45:03.429Z,10.38
2023-01-21T14:46:24.976Z,12.52
2023-01-21T14:47:30.597Z,10.68
2023-01-21T14:48:34.480Z,10.88
2023-01-21T14:49:44.875Z,13.98
2023-01-21T14:50:54.076Z,10.20
2023-01-21T14:51:59.468Z,10.20
2023-01-21T14:53:11.903Z,14.02
2023-01-21T14:54:27.522Z,11.55
2023-01-21T14:55:33.029Z,9.50